This is the latest recevied weather packets stored in our database for station/object KD8OUK. If no packets are shown the sender has not sent any weather packets the latest 10 day(s).
| Time | Temp. | Humidity | Pressure | Rain* | Wind** | Luminosity | Snow |
|---|---|---|---|---|---|---|---|
| 1778016932 | 14.44° C | 99% | 1008.4 hPa | 6.35 mm | - | - | - |
| 1778016624 | 14.44° C | 99% | 1008.4 hPa | 8.13 mm | - | - | - |
| 1778016316 | 14.44° C | 99% | 1008.5 hPa | 10.67 mm | - | - | - |
| 1778016026 | 14.44° C | 99% | 1008.6 hPa | 10.67 mm | - | - | - |
| 1778015718 | 15° C | 99% | 1008.6 hPa | 10.16 mm | - | - | - |
| 1778015428 | 15° C | 99% | 1008.5 hPa | 9.4 mm | - | - | - |
| 1778015122 | 15° C | 99% | 1008.5 hPa | 9.14 mm | - | - | - |
| 1778014832 | 15° C | 99% | 1008.5 hPa | 8.89 mm | - | - | - |
| 1778014523 | 15° C | 99% | 1008.5 hPa | 8.64 mm | - | - | - |
| 1778014233 | 15° C | 99% | 1008.6 hPa | 8.38 mm | - | - | - |
| 1778013925 | 15° C | 99% | 1008.7 hPa | 7.87 mm | - | - | - |
| 1778013617 | 15° C | 99% | 1008.7 hPa | 7.11 mm | - | - | - |
| 1778013327 | 15° C | 99% | 1008.4 hPa | 5.08 mm | - | - | - |
| 1778013019 | 15.56° C | 97% | 1008.4 hPa | 3.05 mm | - | - | - |
| 1778012729 | 16.11° C | 93% | 1008.3 hPa | 0.51 mm | - | - | - |
| 1778012422 | 16.11° C | 91% | 1008.2 hPa | 0 mm | - | - | - |
| 1778012126 | 16.11° C | 89% | 1008.2 hPa | 0 mm | - | - | - |
| 1778011824 | 16.67° C | 88% | 1008.3 hPa | 0 mm | - | - | - |
| 1778011516 | 16.67° C | 87% | 1008.3 hPa | 0 mm | - | - | - |
| 1778011221 | 16.67° C | 86% | 1008.3 hPa | 0 mm | - | - | - |
| 1778010918 | 16.67° C | 86% | 1008.3 hPa | 0 mm | - | - | - |
| 1778010617 | 16.67° C | 86% | 1008.4 hPa | 0 mm | - | - | - |
| 1778010321 | 16.67° C | 86% | 1008.5 hPa | 0 mm | - | - | - |
| 1778010031 | 16.67° C | 86% | 1008.5 hPa | 0.25 mm | - | - | - |
| 1778009723 | 16.67° C | 86% | 1008.6 hPa | 0.25 mm | - | - | - |
* Rain latest hour (hover to see other rain measurements)
** Current wind speed in m/s (hover to see current wind gust speed)